sensor_id;sensor_type;location;lat;lon;timestamp;temperature;humidity
14415;DHT22;7307;50.852;4.314;2022-09-09T00:00:33;26.00;52.70
14415;DHT22;7307;50.852;4.314;2022-09-09T00:03:19;26.00;52.70
14415;DHT22;7307;50.852;4.314;2022-09-09T00:06:04;26.00;52.70
14415;DHT22;7307;50.852;4.314;2022-09-09T00:11:41;26.00;52.70
14415;DHT22;7307;50.852;4.314;2022-09-09T00:17:01;26.00;52.80
14415;DHT22;7307;50.852;4.314;2022-09-09T00:19:33;26.00;52.80
14415;DHT22;7307;50.852;4.314;2022-09-09T00:22:27;26.00;52.90
14415;DHT22;7307;50.852;4.314;2022-09-09T00:24:55;26.00;52.80
14415;DHT22;7307;50.852;4.314;2022-09-09T00:27:31;26.00;52.80
14415;DHT22;7307;50.852;4.314;2022-09-09T00:30:20;26.00;52.80
14415;DHT22;7307;50.852;4.314;2022-09-09T00:32:53;26.00;52.70
14415;DHT22;7307;50.852;4.314;2022-09-09T00:35:25;26.00;52.80
14415;DHT22;7307;50.852;4.314;2022-09-09T00:37:56;26.00;52.80
14415;DHT22;7307;50.852;4.314;2022-09-09T00:48:52;26.00;52.90
14415;DHT22;7307;50.852;4.314;2022-09-09T00:56:49;25.90;52.70
14415;DHT22;7307;50.852;4.314;2022-09-09T00:59:22;25.90;52.80
14415;DHT22;7307;50.852;4.314;2022-09-09T01:01:51;25.90;52.80
14415;DHT22;7307;50.852;4.314;2022-09-09T01:04:27;25.90;52.80
14415;DHT22;7307;50.852;4.314;2022-09-09T01:07:03;25.90;53.80
14415;DHT22;7307;50.852;4.314;2022-09-09T01:09:51;25.90;53.30
14415;DHT22;7307;50.852;4.314;2022-09-09T01:12:41;25.90;53.70
14415;DHT22;7307;50.852;4.314;2022-09-09T01:15:22;25.90;53.50
14415;DHT22;7307;50.852;4.314;2022-09-09T01:20:31;25.90;53.80
14415;DHT22;7307;50.852;4.314;2022-09-09T01:23:30;25.90;53.30
14415;DHT22;7307;50.852;4.314;2022-09-09T01:28:51;25.90;53.50
14415;DHT22;7307;50.852;4.314;2022-09-09T01:34:31;25.90;53.40
14415;DHT22;7307;50.852;4.314;2022-09-09T01:37:03;25.90;53.50
14415;DHT22;7307;50.852;4.314;2022-09-09T01:39:30;25.90;53.50
14415;DHT22;7307;50.852;4.314;2022-09-09T01:41:56;25.90;53.50
14415;DHT22;7307;50.852;4.314;2022-09-09T01:44:23;25.90;53.40
14415;DHT22;7307;50.852;4.314;2022-09-09T01:46:49;25.90;53.50
14415;DHT22;7307;50.852;4.314;2022-09-09T01:49:16;25.90;53.40
14415;DHT22;7307;50.852;4.314;2022-09-09T01:51:43;25.90;53.30
14415;DHT22;7307;50.852;4.314;2022-09-09T01:54:11;25.80;53.30
14415;DHT22;7307;50.852;4.314;2022-09-09T02:02:19;25.90;53.20
14415;DHT22;7307;50.852;4.314;2022-09-09T02:04:56;25.90;53.30
14415;DHT22;7307;50.852;4.314;2022-09-09T02:10:00;25.90;53.30
14415;DHT22;7307;50.852;4.314;2022-09-09T02:12:27;25.90;53.40
14415;DHT22;7307;50.852;4.314;2022-09-09T02:15:03;25.90;53.60
14415;DHT22;7307;50.852;4.314;2022-09-09T02:17:34;25.90;53.60
14415;DHT22;7307;50.852;4.314;2022-09-09T02:20:12;25.90;53.60
14415;DHT22;7307;50.852;4.314;2022-09-09T02:22:41;25.90;53.60
14415;DHT22;7307;50.852;4.314;2022-09-09T02:25:10;25.90;53.50
14415;DHT22;7307;50.852;4.314;2022-09-09T02:27:38;25.90;53.60
14415;DHT22;7307;50.852;4.314;2022-09-09T02:30:06;25.90;53.60
14415;DHT22;7307;50.852;4.314;2022-09-09T02:32:34;25.80;53.60
14415;DHT22;7307;50.852;4.314;2022-09-09T02:35:05;25.80;53.40
14415;DHT22;7307;50.852;4.314;2022-09-09T02:37:37;25.80;53.40
14415;DHT22;7307;50.852;4.314;2022-09-09T02:40:05;25.80;53.40
14415;DHT22;7307;50.852;4.314;2022-09-09T02:42:32;25.80;53.50
14415;DHT22;7307;50.852;4.314;2022-09-09T02:44:57;25.80;53.50
14415;DHT22;7307;50.852;4.314;2022-09-09T02:47:46;25.80;54.10
14415;DHT22;7307;50.852;4.314;2022-09-09T02:50:24;25.80;53.40
14415;DHT22;7307;50.852;4.314;2022-09-09T02:55:45;25.80;53.50
14415;DHT22;7307;50.852;4.314;2022-09-09T02:58:15;25.80;53.40
14415;DHT22;7307;50.852;4.314;2022-09-09T03:00:44;25.80;53.40
14415;DHT22;7307;50.852;4.314;2022-09-09T03:03:10;25.80;53.40
14415;DHT22;7307;50.852;4.314;2022-09-09T03:05:36;25.80;53.40
14415;DHT22;7307;50.852;4.314;2022-09-09T03:08:03;25.80;53.40
14415;DHT22;7307;50.852;4.314;2022-09-09T03:10:29;25.80;53.40
14415;DHT22;7307;50.852;4.314;2022-09-09T03:12:54;25.80;53.40
14415;DHT22;7307;50.852;4.314;2022-09-09T03:15:20;25.80;53.40
14415;DHT22;7307;50.852;4.314;2022-09-09T03:17:46;25.80;53.40
14415;DHT22;7307;50.852;4.314;2022-09-09T03:20:12;25.80;53.40
14415;DHT22;7307;50.852;4.314;2022-09-09T03:22:38;25.80;53.40
14415;DHT22;7307;50.852;4.314;2022-09-09T03:25:04;25.80;53.40
14415;DHT22;7307;50.852;4.314;2022-09-09T03:27:29;25.80;53.40
14415;DHT22;7307;50.852;4.314;2022-09-09T03:29:55;25.80;53.40
14415;DHT22;7307;50.852;4.314;2022-09-09T03:32:21;25.80;53.30
14415;DHT22;7307;50.852;4.314;2022-09-09T03:34:48;25.80;53.40
14415;DHT22;7307;50.852;4.314;2022-09-09T03:37:15;25.80;53.40
14415;DHT22;7307;50.852;4.314;2022-09-09T03:39:41;25.80;53.40
14415;DHT22;7307;50.852;4.314;2022-09-09T03:42:07;25.80;53.40
14415;DHT22;7307;50.852;4.314;2022-09-09T03:44:32;25.80;53.40
14415;DHT22;7307;50.852;4.314;2022-09-09T03:46:58;25.80;53.40
14415;DHT22;7307;50.852;4.314;2022-09-09T03:49:26;25.80;53.30
14415;DHT22;7307;50.852;4.314;2022-09-09T03:51:54;25.70;53.40
14415;DHT22;7307;50.852;4.314;2022-09-09T03:54:20;25.80;53.40
14415;DHT22;7307;50.852;4.314;2022-09-09T03:56:45;25.80;53.40
14415;DHT22;7307;50.852;4.314;2022-09-09T03:59:11;25.80;53.40
14415;DHT22;7307;50.852;4.314;2022-09-09T04:01:36;25.80;53.30
14415;DHT22;7307;50.852;4.314;2022-09-09T04:04:02;25.80;53.30
14415;DHT22;7307;50.852;4.314;2022-09-09T04:06:28;25.70;53.40
14415;DHT22;7307;50.852;4.314;2022-09-09T04:08:54;25.80;53.40
14415;DHT22;7307;50.852;4.314;2022-09-09T04:11:20;25.70;53.30
14415;DHT22;7307;50.852;4.314;2022-09-09T04:13:46;25.70;53.40
14415;DHT22;7307;50.852;4.314;2022-09-09T04:16:13;25.70;53.30
14415;DHT22;7307;50.852;4.314;2022-09-09T04:18:39;25.70;53.30
14415;DHT22;7307;50.852;4.314;2022-09-09T04:21:05;25.70;53.20
14415;DHT22;7307;50.852;4.314;2022-09-09T04:23:32;25.70;53.30
14415;DHT22;7307;50.852;4.314;2022-09-09T04:26:00;25.70;53.30
14415;DHT22;7307;50.852;4.314;2022-09-09T04:28:32;25.70;53.20
14415;DHT22;7307;50.852;4.314;2022-09-09T04:31:14;25.70;53.30
14415;DHT22;7307;50.852;4.314;2022-09-09T04:33:40;25.70;53.30
14415;DHT22;7307;50.852;4.314;2022-09-09T04:36:07;25.70;53.30
14415;DHT22;7307;50.852;4.314;2022-09-09T04:38:32;25.70;53.30
14415;DHT22;7307;50.852;4.314;2022-09-09T04:40:58;25.70;53.30
14415;DHT22;7307;50.852;4.314;2022-09-09T04:43:24;25.70;53.30
14415;DHT22;7307;50.852;4.314;2022-09-09T04:45:51;25.70;53.40
14415;DHT22;7307;50.852;4.314;2022-09-09T04:48:18;25.70;53.30
14415;DHT22;7307;50.852;4.314;2022-09-09T04:50:43;25.70;53.30
14415;DHT22;7307;50.852;4.314;2022-09-09T04:53:09;25.70;53.30
14415;DHT22;7307;50.852;4.314;2022-09-09T04:55:35;25.70;53.30
14415;DHT22;7307;50.852;4.314;2022-09-09T04:58:08;25.70;53.30
14415;DHT22;7307;50.852;4.314;2022-09-09T05:00:35;25.70;53.40
14415;DHT22;7307;50.852;4.314;2022-09-09T05:03:10;25.70;53.30
14415;DHT22;7307;50.852;4.314;2022-09-09T05:05:35;25.70;53.40
14415;DHT22;7307;50.852;4.314;2022-09-09T05:08:02;25.60;53.30
14415;DHT22;7307;50.852;4.314;2022-09-09T05:10:28;25.70;53.40
14415;DHT22;7307;50.852;4.314;2022-09-09T05:12:54;25.70;53.40
14415;DHT22;7307;50.852;4.314;2022-09-09T05:15:20;25.70;53.30
14415;DHT22;7307;50.852;4.314;2022-09-09T05:17:46;25.70;53.30
14415;DHT22;7307;50.852;4.314;2022-09-09T05:20:12;25.70;53.30
14415;DHT22;7307;50.852;4.314;2022-09-09T05:22:37;25.70;53.40
14415;DHT22;7307;50.852;4.314;2022-09-09T05:25:03;25.70;53.30
14415;DHT22;7307;50.852;4.314;2022-09-09T05:27:29;25.60;53.30
14415;DHT22;7307;50.852;4.314;2022-09-09T05:29:56;25.70;53.40
14415;DHT22;7307;50.852;4.314;2022-09-09T05:32:23;25.70;53.40
14415;DHT22;7307;50.852;4.314;2022-09-09T05:34:49;25.70;53.40
14415;DHT22;7307;50.852;4.314;2022-09-09T05:37:15;25.70;53.40
14415;DHT22;7307;50.852;4.314;2022-09-09T05:39:41;25.70;53.40
14415;DHT22;7307;50.852;4.314;2022-09-09T05:42:07;25.70;53.30
14415;DHT22;7307;50.852;4.314;2022-09-09T05:44:33;25.60;53.30
14415;DHT22;7307;50.852;4.314;2022-09-09T05:46:58;25.60;53.30
14415;DHT22;7307;50.852;4.314;2022-09-09T05:49:24;25.60;53.30
14415;DHT22;7307;50.852;4.314;2022-09-09T05:51:50;25.60;53.30
14415;DHT22;7307;50.852;4.314;2022-09-09T05:54:16;25.60;53.30
14415;DHT22;7307;50.852;4.314;2022-09-09T05:56:42;25.60;53.30
14415;DHT22;7307;50.852;4.314;2022-09-09T05:59:08;25.60;53.30
14415;DHT22;7307;50.852;4.314;2022-09-09T06:01:35;25.60;53.30
14415;DHT22;7307;50.852;4.314;2022-09-09T06:04:02;25.60;53.30
14415;DHT22;7307;50.852;4.314;2022-09-09T06:06:32;25.60;53.30
14415;DHT22;7307;50.852;4.314;2022-09-09T06:09:02;25.60;53.30
14415;DHT22;7307;50.852;4.314;2022-09-09T06:11:30;25.60;53.30
14415;DHT22;7307;50.852;4.314;2022-09-09T06:13:59;25.60;53.30
14415;DHT22;7307;50.852;4.314;2022-09-09T06:16:27;25.60;53.30
14415;DHT22;7307;50.852;4.314;2022-09-09T06:18:54;25.60;53.40
14415;DHT22;7307;50.852;4.314;2022-09-09T06:21:27;25.60;53.30
14415;DHT22;7307;50.852;4.314;2022-09-09T06:23:53;25.60;53.30
14415;DHT22;7307;50.852;4.314;2022-09-09T06:26:21;25.60;53.30
14415;DHT22;7307;50.852;4.314;2022-09-09T06:28:49;25.60;53.40
14415;DHT22;7307;50.852;4.314;2022-09-09T06:31:17;25.60;54.00
14415;DHT22;7307;50.852;4.314;2022-09-09T06:33:43;25.60;53.30
14415;DHT22;7307;50.852;4.314;2022-09-09T06:36:14;25.60;53.30
14415;DHT22;7307;50.852;4.314;2022-09-09T06:38:44;25.60;53.30
14415;DHT22;7307;50.852;4.314;2022-09-09T06:41:11;25.60;53.40
14415;DHT22;7307;50.852;4.314;2022-09-09T06:43:38;25.60;53.30
14415;DHT22;7307;50.852;4.314;2022-09-09T06:46:08;25.60;53.60
14415;DHT22;7307;50.852;4.314;2022-09-09T06:48:35;25.60;52.70
14415;DHT22;7307;50.852;4.314;2022-09-09T06:51:09;25.60;52.30
14415;DHT22;7307;50.852;4.314;2022-09-09T06:53:40;25.50;52.10
14415;DHT22;7307;50.852;4.314;2022-09-09T06:58:47;25.40;51.90
14415;DHT22;7307;50.852;4.314;2022-09-09T07:01:19;25.40;52.00
14415;DHT22;7307;50.852;4.314;2022-09-09T07:03:47;25.40;52.00
14415;DHT22;7307;50.852;4.314;2022-09-09T07:06:15;25.30;51.90
14415;DHT22;7307;50.852;4.314;2022-09-09T07:08:42;25.30;52.00
14415;DHT22;7307;50.852;4.314;2022-09-09T07:11:09;25.20;52.00
14415;DHT22;7307;50.852;4.314;2022-09-09T07:13:35;25.20;52.30
14415;DHT22;7307;50.852;4.314;2022-09-09T07:16:09;25.20;52.50
14415;DHT22;7307;50.852;4.314;2022-09-09T07:18:35;25.10;52.20
14415;DHT22;7307;50.852;4.314;2022-09-09T07:21:02;25.10;52.30
14415;DHT22;7307;50.852;4.314;2022-09-09T07:23:29;25.10;52.30
14415;DHT22;7307;50.852;4.314;2022-09-09T07:25:58;25.00;52.20
14415;DHT22;7307;50.852;4.314;2022-09-09T07:28:25;25.10;52.30
14415;DHT22;7307;50.852;4.314;2022-09-09T07:30:59;25.00;52.30
14415;DHT22;7307;50.852;4.314;2022-09-09T07:33:28;25.00;52.30
14415;DHT22;7307;50.852;4.314;2022-09-09T07:36:07;24.90;52.30
14415;DHT22;7307;50.852;4.314;2022-09-09T07:38:45;24.90;52.60
14415;DHT22;7307;50.852;4.314;2022-09-09T07:41:17;24.90;52.40
14415;DHT22;7307;50.852;4.314;2022-09-09T07:43:45;24.90;52.60
14415;DHT22;7307;50.852;4.314;2022-09-09T07:46:12;24.90;52.90
14415;DHT22;7307;50.852;4.314;2022-09-09T07:48:45;24.80;53.00
14415;DHT22;7307;50.852;4.314;2022-09-09T07:51:14;24.80;53.00
14415;DHT22;7307;50.852;4.314;2022-09-09T07:53:44;24.90;53.00
14415;DHT22;7307;50.852;4.314;2022-09-09T07:56:12;24.80;53.10
14415;DHT22;7307;50.852;4.314;2022-09-09T07:58:39;24.90;53.00
14415;DHT22;7307;50.852;4.314;2022-09-09T08:01:18;24.90;52.90
14415;DHT22;7307;50.852;4.314;2022-09-09T08:03:52;24.90;53.00
14415;DHT22;7307;50.852;4.314;2022-09-09T08:06:18;24.90;53.10
14415;DHT22;7307;50.852;4.314;2022-09-09T08:08:43;24.90;53.00
14415;DHT22;7307;50.852;4.314;2022-09-09T08:11:11;25.00;52.90
14415;DHT22;7307;50.852;4.314;2022-09-09T08:13:38;25.00;52.90
14415;DHT22;7307;50.852;4.314;2022-09-09T08:16:09;25.00;53.40
14415;DHT22;7307;50.852;4.314;2022-09-09T08:18:35;25.00;52.80
14415;DHT22;7307;50.852;4.314;2022-09-09T08:21:10;25.00;52.80
14415;DHT22;7307;50.852;4.314;2022-09-09T08:23:43;25.10;52.80
14415;DHT22;7307;50.852;4.314;2022-09-09T08:26:13;25.10;52.80
14415;DHT22;7307;50.852;4.314;2022-09-09T08:28:39;25.10;52.80
14415;DHT22;7307;50.852;4.314;2022-09-09T08:31:14;25.10;52.80
14415;DHT22;7307;50.852;4.314;2022-09-09T08:33:41;25.10;52.70
14415;DHT22;7307;50.852;4.314;2022-09-09T08:36:09;25.10;52.70
14415;DHT22;7307;50.852;4.314;2022-09-09T08:38:36;25.10;52.90
14415;DHT22;7307;50.852;4.314;2022-09-09T08:43:47;25.10;52.80
14415;DHT22;7307;50.852;4.314;2022-09-09T08:49:06;25.10;52.80
14415;DHT22;7307;50.852;4.314;2022-09-09T08:51:37;25.10;52.80
14415;DHT22;7307;50.852;4.314;2022-09-09T08:54:03;25.10;52.80
14415;DHT22;7307;50.852;4.314;2022-09-09T08:56:31;25.20;52.90
14415;DHT22;7307;50.852;4.314;2022-09-09T08:58:59;25.20;52.90
14415;DHT22;7307;50.852;4.314;2022-09-09T09:04:44;25.20;53.00
14415;DHT22;7307;50.852;4.314;2022-09-09T09:07:42;25.20;53.60
14415;DHT22;7307;50.852;4.314;2022-09-09T09:12:43;25.20;55.00
14415;DHT22;7307;50.852;4.314;2022-09-09T09:15:19;25.20;55.20
14415;DHT22;7307;50.852;4.314;2022-09-09T09:17:46;25.20;55.60
14415;DHT22;7307;50.852;4.314;2022-09-09T09:20:16;25.20;55.80
14415;DHT22;7307;50.852;4.314;2022-09-09T09:22:52;25.20;56.00
14415;DHT22;7307;50.852;4.314;2022-09-09T09:25:23;25.20;56.30
14415;DHT22;7307;50.852;4.314;2022-09-09T09:28:16;25.20;56.50
14415;DHT22;7307;50.852;4.314;2022-09-09T09:33:20;25.20;57.10
14415;DHT22;7307;50.852;4.314;2022-09-09T09:35:49;25.20;57.20
14415;DHT22;7307;50.852;4.314;2022-09-09T09:38:18;25.20;57.50
14415;DHT22;7307;50.852;4.314;2022-09-09T09:40:49;25.20;57.70
14415;DHT22;7307;50.852;4.314;2022-09-09T09:43:24;25.20;58.00
14415;DHT22;7307;50.852;4.314;2022-09-09T09:45:50;25.20;58.70
14415;DHT22;7307;50.852;4.314;2022-09-09T09:48:15;25.20;58.50
14415;DHT22;7307;50.852;4.314;2022-09-09T09:50:51;25.20;58.00
14415;DHT22;7307;50.852;4.314;2022-09-09T09:53:24;25.10;57.20
14415;DHT22;7307;50.852;4.314;2022-09-09T09:55:59;25.10;56.90
14415;DHT22;7307;50.852;4.314;2022-09-09T09:58:26;25.10;56.70
14415;DHT22;7307;50.852;4.314;2022-09-09T10:00:53;25.10;56.60
14415;DHT22;7307;50.852;4.314;2022-09-09T10:03:32;25.10;56.70
14415;DHT22;7307;50.852;4.314;2022-09-09T10:06:03;25.00;56.70
14415;DHT22;7307;50.852;4.314;2022-09-09T10:08:29;25.00;56.60
14415;DHT22;7307;50.852;4.314;2022-09-09T10:16:30;24.90;57.40
14415;DHT22;7307;50.852;4.314;2022-09-09T10:19:09;24.90;57.60
14415;DHT22;7307;50.852;4.314;2022-09-09T10:24:42;24.90;58.10
14415;DHT22;7307;50.852;4.314;2022-09-09T10:27:32;24.90;58.40
14415;DHT22;7307;50.852;4.314;2022-09-09T10:30:24;24.90;58.50
14415;DHT22;7307;50.852;4.314;2022-09-09T10:33:14;24.90;58.70
14415;DHT22;7307;50.852;4.314;2022-09-09T10:41:15;25.00;59.60
14415;DHT22;7307;50.852;4.314;2022-09-09T10:46:34;25.00;60.10
14415;DHT22;7307;50.852;4.314;2022-09-09T10:49:16;25.00;60.30
14415;DHT22;7307;50.852;4.314;2022-09-09T10:51:58;25.00;60.60
14415;DHT22;7307;50.852;4.314;2022-09-09T10:54:35;25.10;60.80
14415;DHT22;7307;50.852;4.314;2022-09-09T10:57:13;25.00;61.00
14415;DHT22;7307;50.852;4.314;2022-09-09T10:59:46;25.10;61.10
14415;DHT22;7307;50.852;4.314;2022-09-09T11:02:23;25.10;61.20
14415;DHT22;7307;50.852;4.314;2022-09-09T11:07:42;25.10;61.50
14415;DHT22;7307;50.852;4.314;2022-09-09T11:10:51;25.10;61.40
14415;DHT22;7307;50.852;4.314;2022-09-09T11:15:57;25.10;61.40
14415;DHT22;7307;50.852;4.314;2022-09-09T11:18:28;25.10;61.60
14415;DHT22;7307;50.852;4.314;2022-09-09T11:20:58;25.10;61.70
14415;DHT22;7307;50.852;4.314;2022-09-09T11:23:40;25.10;62.10
14415;DHT22;7307;50.852;4.314;2022-09-09T11:26:12;25.10;62.30
14415;DHT22;7307;50.852;4.314;2022-09-09T11:34:13;25.10;62.50
14415;DHT22;7307;50.852;4.314;2022-09-09T11:44:41;25.10;62.50
14415;DHT22;7307;50.852;4.314;2022-09-09T11:47:26;25.10;62.60
14415;DHT22;7307;50.852;4.314;2022-09-09T11:50:26;25.10;62.70
14415;DHT22;7307;50.852;4.314;2022-09-09T11:55:39;25.10;63.00
14415;DHT22;7307;50.852;4.314;2022-09-09T12:00:42;25.10;63.00
14415;DHT22;7307;50.852;4.314;2022-09-09T12:03:48;25.10;63.20
14415;DHT22;7307;50.852;4.314;2022-09-09T12:06:19;25.10;63.20
14415;DHT22;7307;50.852;4.314;2022-09-09T12:09:08;25.10;63.20
14415;DHT22;7307;50.852;4.314;2022-09-09T12:11:36;25.10;63.30
14415;DHT22;7307;50.852;4.314;2022-09-09T12:14:02;25.20;63.40
14415;DHT22;7307;50.852;4.314;2022-09-09T12:16:31;25.10;63.30
14415;DHT22;7307;50.852;4.314;2022-09-09T12:19:12;25.10;63.30
14415;DHT22;7307;50.852;4.314;2022-09-09T12:24:43;25.10;63.50
14415;DHT22;7307;50.852;4.314;2022-09-09T12:27:33;25.20;63.60
14415;DHT22;7307;50.852;4.314;2022-09-09T12:32:35;25.20;63.60
14415;DHT22;7307;50.852;4.314;2022-09-09T12:35:09;25.10;63.60
14415;DHT22;7307;50.852;4.314;2022-09-09T12:37:48;25.10;63.50
14415;DHT22;7307;50.852;4.314;2022-09-09T12:40:29;25.10;63.40
14415;DHT22;7307;50.852;4.314;2022-09-09T12:42:57;25.10;63.30
14415;DHT22;7307;50.852;4.314;2022-09-09T12:45:26;25.20;63.50
14415;DHT22;7307;50.852;4.314;2022-09-09T12:48:06;25.10;63.50
14415;DHT22;7307;50.852;4.314;2022-09-09T12:50:37;25.10;63.70
14415;DHT22;7307;50.852;4.314;2022-09-09T12:53:30;25.10;63.50
14415;DHT22;7307;50.852;4.314;2022-09-09T12:55:59;25.10;63.30
14415;DHT22;7307;50.852;4.314;2022-09-09T12:58:26;25.10;63.40
14415;DHT22;7307;50.852;4.314;2022-09-09T13:00:55;25.10;63.40
14415;DHT22;7307;50.852;4.314;2022-09-09T13:03:25;25.10;63.50
14415;DHT22;7307;50.852;4.314;2022-09-09T13:05:52;25.10;63.30
14415;DHT22;7307;50.852;4.314;2022-09-09T13:08:19;25.10;63.30
14415;DHT22;7307;50.852;4.314;2022-09-09T13:10:51;25.20;63.60
14415;DHT22;7307;50.852;4.314;2022-09-09T13:13:28;25.10;63.30
14415;DHT22;7307;50.852;4.314;2022-09-09T13:15:57;25.10;63.30
14415;DHT22;7307;50.852;4.314;2022-09-09T13:18:29;25.10;63.20
14415;DHT22;7307;50.852;4.314;2022-09-09T13:20:55;25.20;63.40
14415;DHT22;7307;50.852;4.314;2022-09-09T13:23:30;25.20;63.30
14415;DHT22;7307;50.852;4.314;2022-09-09T13:25:58;25.20;63.40
14415;DHT22;7307;50.852;4.314;2022-09-09T13:28:29;25.20;63.20
14415;DHT22;7307;50.852;4.314;2022-09-09T13:31:02;25.20;63.20
14415;DHT22;7307;50.852;4.314;2022-09-09T13:33:32;25.20;63.10
14415;DHT22;7307;50.852;4.314;2022-09-09T13:36:04;25.20;63.00
14415;DHT22;7307;50.852;4.314;2022-09-09T13:38:35;25.20;63.10
14415;DHT22;7307;50.852;4.314;2022-09-09T13:41:06;25.20;62.90
14415;DHT22;7307;50.852;4.314;2022-09-09T13:43:44;25.20;63.80
14415;DHT22;7307;50.852;4.314;2022-09-09T13:46:34;25.20;63.10
14415;DHT22;7307;50.852;4.314;2022-09-09T13:51:37;25.20;62.90
14415;DHT22;7307;50.852;4.314;2022-09-09T13:54:06;25.20;62.70
14415;DHT22;7307;50.852;4.314;2022-09-09T13:56:35;25.20;62.90
14415;DHT22;7307;50.852;4.314;2022-09-09T13:59:02;25.20;62.90
14415;DHT22;7307;50.852;4.314;2022-09-09T14:01:28;25.20;62.90
14415;DHT22;7307;50.852;4.314;2022-09-09T14:03:54;25.20;62.90
14415;DHT22;7307;50.852;4.314;2022-09-09T14:06:20;25.20;62.90
14415;DHT22;7307;50.852;4.314;2022-09-09T14:08:47;25.20;62.90
14415;DHT22;7307;50.852;4.314;2022-09-09T14:11:14;25.20;62.80
14415;DHT22;7307;50.852;4.314;2022-09-09T14:13:40;25.20;62.70
14415;DHT22;7307;50.852;4.314;2022-09-09T14:16:05;25.20;62.70
14415;DHT22;7307;50.852;4.314;2022-09-09T14:18:31;25.20;63.30
14415;DHT22;7307;50.852;4.314;2022-09-09T14:20:57;25.20;62.50
14415;DHT22;7307;50.852;4.314;2022-09-09T14:23:24;25.20;62.60
14415;DHT22;7307;50.852;4.314;2022-09-09T14:25:50;25.20;62.50
14415;DHT22;7307;50.852;4.314;2022-09-09T14:28:17;25.20;62.40
14415;DHT22;7307;50.852;4.314;2022-09-09T14:30:43;25.20;62.40
14415;DHT22;7307;50.852;4.314;2022-09-09T14:33:13;25.20;62.40
14415;DHT22;7307;50.852;4.314;2022-09-09T14:35:39;25.20;62.40
14415;DHT22;7307;50.852;4.314;2022-09-09T14:38:07;25.20;62.30
14415;DHT22;7307;50.852;4.314;2022-09-09T14:40:37;25.20;62.20
14415;DHT22;7307;50.852;4.314;2022-09-09T14:43:04;25.20;62.20
14415;DHT22;7307;50.852;4.314;2022-09-09T14:45:31;25.20;62.20
14415;DHT22;7307;50.852;4.314;2022-09-09T14:47:56;25.20;62.10
14415;DHT22;7307;50.852;4.314;2022-09-09T14:50:23;25.20;62.10
14415;DHT22;7307;50.852;4.314;2022-09-09T14:52:49;25.20;62.00
14415;DHT22;7307;50.852;4.314;2022-09-09T14:55:16;25.20;62.10
14415;DHT22;7307;50.852;4.314;2022-09-09T14:57:41;25.20;61.90
14415;DHT22;7307;50.852;4.314;2022-09-09T15:00:09;25.20;61.90
14415;DHT22;7307;50.852;4.314;2022-09-09T15:02:35;25.20;61.90
14415;DHT22;7307;50.852;4.314;2022-09-09T15:05:01;25.20;61.80
14415;DHT22;7307;50.852;4.314;2022-09-09T15:07:26;25.20;61.80
14415;DHT22;7307;50.852;4.314;2022-09-09T15:09:54;25.20;61.80
14415;DHT22;7307;50.852;4.314;2022-09-09T15:12:20;25.20;61.70
14415;DHT22;7307;50.852;4.314;2022-09-09T15:14:46;25.20;61.60
14415;DHT22;7307;50.852;4.314;2022-09-09T15:17:12;25.20;61.70
14415;DHT22;7307;50.852;4.314;2022-09-09T15:19:38;25.20;61.60
14415;DHT22;7307;50.852;4.314;2022-09-09T15:22:05;25.20;61.50
14415;DHT22;7307;50.852;4.314;2022-09-09T15:24:32;25.20;61.50
14415;DHT22;7307;50.852;4.314;2022-09-09T15:26:58;25.20;61.60
14415;DHT22;7307;50.852;4.314;2022-09-09T15:29:24;25.20;61.50
14415;DHT22;7307;50.852;4.314;2022-09-09T15:31:49;25.20;61.40
14415;DHT22;7307;50.852;4.314;2022-09-09T15:34:15;25.20;61.30
14415;DHT22;7307;50.852;4.314;2022-09-09T15:36:43;25.20;62.10
14415;DHT22;7307;50.852;4.314;2022-09-09T15:39:11;25.20;61.30
14415;DHT22;7307;50.852;4.314;2022-09-09T15:41:42;25.20;61.30
14415;DHT22;7307;50.852;4.314;2022-09-09T15:44:08;25.20;61.20
14415;DHT22;7307;50.852;4.314;2022-09-09T15:46:44;25.20;61.10
14415;DHT22;7307;50.852;4.314;2022-09-09T15:49:14;25.20;61.00
14415;DHT22;7307;50.852;4.314;2022-09-09T15:51:42;25.20;60.90
14415;DHT22;7307;50.852;4.314;2022-09-09T15:54:09;25.20;60.80
14415;DHT22;7307;50.852;4.314;2022-09-09T15:56:35;25.20;60.80
14415;DHT22;7307;50.852;4.314;2022-09-09T15:59:02;25.20;60.80
14415;DHT22;7307;50.852;4.314;2022-09-09T16:01:28;25.20;60.70
14415;DHT22;7307;50.852;4.314;2022-09-09T16:03:56;25.20;60.70
14415;DHT22;7307;50.852;4.314;2022-09-09T16:06:23;25.10;60.40
14415;DHT22;7307;50.852;4.314;2022-09-09T16:08:51;25.20;60.40
14415;DHT22;7307;50.852;4.314;2022-09-09T16:11:37;25.20;60.40
14415;DHT22;7307;50.852;4.314;2022-09-09T16:14:04;25.20;60.20
14415;DHT22;7307;50.852;4.314;2022-09-09T16:16:31;25.20;60.20
14415;DHT22;7307;50.852;4.314;2022-09-09T16:18:59;25.20;60.10
14415;DHT22;7307;50.852;4.314;2022-09-09T16:21:31;25.20;60.10
14415;DHT22;7307;50.852;4.314;2022-09-09T16:23:59;25.20;60.00
14415;DHT22;7307;50.852;4.314;2022-09-09T16:26:25;25.20;60.00
14415;DHT22;7307;50.852;4.314;2022-09-09T16:28:51;25.20;60.00
14415;DHT22;7307;50.852;4.314;2022-09-09T16:31:22;25.20;60.00
14415;DHT22;7307;50.852;4.314;2022-09-09T16:33:48;25.20;60.00
14415;DHT22;7307;50.852;4.314;2022-09-09T16:36:19;25.20;59.90
14415;DHT22;7307;50.852;4.314;2022-09-09T16:38:46;25.20;59.90
14415;DHT22;7307;50.852;4.314;2022-09-09T16:41:13;25.10;59.70
14415;DHT22;7307;50.852;4.314;2022-09-09T16:43:40;25.20;59.80
14415;DHT22;7307;50.852;4.314;2022-09-09T16:46:17;25.20;59.80
14415;DHT22;7307;50.852;4.314;2022-09-09T16:48:44;25.20;59.80
14415;DHT22;7307;50.852;4.314;2022-09-09T16:51:16;25.20;59.70
14415;DHT22;7307;50.852;4.314;2022-09-09T16:53:43;25.20;59.70
14415;DHT22;7307;50.852;4.314;2022-09-09T16:56:14;25.20;59.70
14415;DHT22;7307;50.852;4.314;2022-09-09T16:58:41;25.20;59.60
14415;DHT22;7307;50.852;4.314;2022-09-09T17:01:09;25.20;59.60
14415;DHT22;7307;50.852;4.314;2022-09-09T17:03:35;25.20;59.60
14415;DHT22;7307;50.852;4.314;2022-09-09T17:06:02;25.20;59.50
14415;DHT22;7307;50.852;4.314;2022-09-09T17:08:31;25.20;59.50
14415;DHT22;7307;50.852;4.314;2022-09-09T17:10:58;25.20;59.50
14415;DHT22;7307;50.852;4.314;2022-09-09T17:13:24;25.20;59.40
14415;DHT22;7307;50.852;4.314;2022-09-09T17:15:50;25.20;59.40
14415;DHT22;7307;50.852;4.314;2022-09-09T17:18:16;25.20;59.50
14415;DHT22;7307;50.852;4.314;2022-09-09T17:20:42;25.20;59.30
14415;DHT22;7307;50.852;4.314;2022-09-09T17:23:10;25.20;59.20
14415;DHT22;7307;50.852;4.314;2022-09-09T17:25:36;25.20;59.10
14415;DHT22;7307;50.852;4.314;2022-09-09T17:28:02;25.20;59.00
14415;DHT22;7307;50.852;4.314;2022-09-09T17:30:35;25.20;59.00
14415;DHT22;7307;50.852;4.314;2022-09-09T17:33:02;25.20;59.60
14415;DHT22;7307;50.852;4.314;2022-09-09T17:35:29;25.10;59.50
14415;DHT22;7307;50.852;4.314;2022-09-09T17:37:55;25.20;58.80
14415;DHT22;7307;50.852;4.314;2022-09-09T17:40:21;25.20;58.80
14415;DHT22;7307;50.852;4.314;2022-09-09T17:42:47;25.20;58.80
14415;DHT22;7307;50.852;4.314;2022-09-09T17:45:13;25.10;58.70
14415;DHT22;7307;50.852;4.314;2022-09-09T17:47:39;25.20;58.70